sensor_id;sensor_type;location;lat;lon;timestamp;P1;durP1;ratioP1;P2;durP2;ratioP2
23394;SDS011;11870;53.084;18.206;2022-09-14T00:00:51;35.92;;;19.77;;
23394;SDS011;11870;53.084;18.206;2022-09-14T00:03:30;32.35;;;18.52;;
23394;SDS011;11870;53.084;18.206;2022-09-14T00:05:56;31.08;;;18.15;;
23394;SDS011;11870;53.084;18.206;2022-09-14T00:08:28;30.13;;;18.25;;
23394;SDS011;11870;53.084;18.206;2022-09-14T00:10:54;28.52;;;17.55;;
23394;SDS011;11870;53.084;18.206;2022-09-14T00:13:20;32.08;;;18.20;;
23394;SDS011;11870;53.084;18.206;2022-09-14T00:15:46;29.95;;;17.50;;
23394;SDS011;11870;53.084;18.206;2022-09-14T00:18:11;30.20;;;18.10;;
23394;SDS011;11870;53.084;18.206;2022-09-14T00:20:37;31.10;;;18.80;;
23394;SDS011;11870;53.084;18.206;2022-09-14T00:23:03;34.67;;;19.98;;
23394;SDS011;11870;53.084;18.206;2022-09-14T00:25:29;36.38;;;20.92;;
23394;SDS011;11870;53.084;18.206;2022-09-14T00:27:56;35.47;;;20.50;;
23394;SDS011;11870;53.084;18.206;2022-09-14T00:30:22;33.63;;;19.08;;
23394;SDS011;11870;53.084;18.206;2022-09-14T00:32:49;36.13;;;20.58;;
23394;SDS011;11870;53.084;18.206;2022-09-14T00:35:17;38.38;;;20.08;;
23394;SDS011;11870;53.084;18.206;2022-09-14T00:37:43;34.80;;;19.73;;
23394;SDS011;11870;53.084;18.206;2022-09-14T00:40:10;37.88;;;20.42;;
23394;SDS011;11870;53.084;18.206;2022-09-14T00:42:37;34.25;;;20.25;;
23394;SDS011;11870;53.084;18.206;2022-09-14T00:45:05;40.60;;;21.30;;
23394;SDS011;11870;53.084;18.206;2022-09-14T00:47:52;40.67;;;21.40;;
23394;SDS011;11870;53.084;18.206;2022-09-14T00:50:18;37.47;;;21.52;;
23394;SDS011;11870;53.084;18.206;2022-09-14T00:52:46;35.00;;;20.65;;
23394;SDS011;11870;53.084;18.206;2022-09-14T00:55:16;35.20;;;19.60;;
23394;SDS011;11870;53.084;18.206;2022-09-14T00:57:46;36.60;;;19.65;;
23394;SDS011;11870;53.084;18.206;2022-09-14T01:00:16;35.53;;;19.67;;
23394;SDS011;11870;53.084;18.206;2022-09-14T01:02:44;37.83;;;20.30;;
23394;SDS011;11870;53.084;18.206;2022-09-14T01:05:11;39.45;;;21.77;;
23394;SDS011;11870;53.084;18.206;2022-09-14T01:07:42;36.40;;;19.83;;
23394;SDS011;11870;53.084;18.206;2022-09-14T01:15:47;43.30;;;21.42;;
23394;SDS011;11870;53.084;18.206;2022-09-14T01:18:28;42.80;;;21.40;;
23394;SDS011;11870;53.084;18.206;2022-09-14T01:21:07;38.30;;;21.17;;
23394;SDS011;11870;53.084;18.206;2022-09-14T01:24:00;37.53;;;20.80;;
23394;SDS011;11870;53.084;18.206;2022-09-14T01:29:19;40.83;;;21.40;;
23394;SDS011;11870;53.084;18.206;2022-09-14T01:32:15;40.10;;;21.52;;
23394;SDS011;11870;53.084;18.206;2022-09-14T01:40:54;36.03;;;20.13;;
23394;SDS011;11870;53.084;18.206;2022-09-14T01:43:32;42.70;;;22.80;;
23394;SDS011;11870;53.084;18.206;2022-09-14T01:46:06;40.72;;;21.40;;
23394;SDS011;11870;53.084;18.206;2022-09-14T01:51:36;42.03;;;22.25;;
23394;SDS011;11870;53.084;18.206;2022-09-14T01:54:11;41.55;;;22.05;;
23394;SDS011;11870;53.084;18.206;2022-09-14T01:56:39;41.72;;;21.38;;
23394;SDS011;11870;53.084;18.206;2022-09-14T01:59:16;37.40;;;20.60;;
23394;SDS011;11870;53.084;18.206;2022-09-14T02:04:28;38.50;;;20.92;;
23394;SDS011;11870;53.084;18.206;2022-09-14T02:07:01;35.95;;;20.30;;
23394;SDS011;11870;53.084;18.206;2022-09-14T02:09:29;36.92;;;19.65;;
23394;SDS011;11870;53.084;18.206;2022-09-14T02:11:55;37.45;;;20.65;;
23394;SDS011;11870;53.084;18.206;2022-09-14T02:14:25;37.35;;;20.58;;
23394;SDS011;11870;53.084;18.206;2022-09-14T02:16:52;35.60;;;19.35;;
23394;SDS011;11870;53.084;18.206;2022-09-14T02:19:18;32.70;;;18.88;;
23394;SDS011;11870;53.084;18.206;2022-09-14T02:21:44;34.70;;;18.58;;
23394;SDS011;11870;53.084;18.206;2022-09-14T02:24:11;35.67;;;18.30;;
23394;SDS011;11870;53.084;18.206;2022-09-14T02:26:37;39.90;;;20.40;;
23394;SDS011;11870;53.084;18.206;2022-09-14T02:29:04;32.80;;;18.95;;
23394;SDS011;11870;53.084;18.206;2022-09-14T02:31:33;30.60;;;17.55;;
23394;SDS011;11870;53.084;18.206;2022-09-14T02:37:00;29.13;;;17.33;;
23394;SDS011;11870;53.084;18.206;2022-09-14T02:40:09;35.05;;;17.90;;
23394;SDS011;11870;53.084;18.206;2022-09-14T02:45:29;29.15;;;17.42;;
23394;SDS011;11870;53.084;18.206;2022-09-14T02:48:06;29.65;;;18.50;;
23394;SDS011;11870;53.084;18.206;2022-09-14T02:55:59;26.98;;;17.23;;
23394;SDS011;11870;53.084;18.206;2022-09-14T02:58:34;29.58;;;17.00;;
23394;SDS011;11870;53.084;18.206;2022-09-14T03:01:03;28.02;;;16.98;;
23394;SDS011;11870;53.084;18.206;2022-09-14T03:03:31;31.17;;;16.75;;
23394;SDS011;11870;53.084;18.206;2022-09-14T03:05:57;32.72;;;18.10;;
23394;SDS011;11870;53.084;18.206;2022-09-14T03:08:24;33.17;;;18.35;;
23394;SDS011;11870;53.084;18.206;2022-09-14T03:10:51;29.80;;;17.00;;
23394;SDS011;11870;53.084;18.206;2022-09-14T03:13:18;31.63;;;18.25;;
23394;SDS011;11870;53.084;18.206;2022-09-14T03:15:45;33.72;;;19.40;;
23394;SDS011;11870;53.084;18.206;2022-09-14T03:18:11;30.38;;;18.15;;
23394;SDS011;11870;53.084;18.206;2022-09-14T03:20:37;32.28;;;18.88;;
23394;SDS011;11870;53.084;18.206;2022-09-14T03:23:05;30.45;;;17.83;;
23394;SDS011;11870;53.084;18.206;2022-09-14T03:25:40;31.17;;;18.52;;
23394;SDS011;11870;53.084;18.206;2022-09-14T03:28:08;31.50;;;18.13;;
23394;SDS011;11870;53.084;18.206;2022-09-14T03:30:35;32.50;;;18.90;;
23394;SDS011;11870;53.084;18.206;2022-09-14T03:33:02;31.48;;;17.92;;
23394;SDS011;11870;53.084;18.206;2022-09-14T03:35:31;32.85;;;17.88;;
23394;SDS011;11870;53.084;18.206;2022-09-14T03:37:58;33.08;;;18.08;;
23394;SDS011;11870;53.084;18.206;2022-09-14T03:40:25;32.22;;;18.23;;
23394;SDS011;11870;53.084;18.206;2022-09-14T03:42:53;36.10;;;19.05;;
23394;SDS011;11870;53.084;18.206;2022-09-14T03:45:19;30.50;;;17.55;;
23394;SDS011;11870;53.084;18.206;2022-09-14T03:47:46;31.65;;;17.55;;
23394;SDS011;11870;53.084;18.206;2022-09-14T03:50:14;28.60;;;16.80;;
23394;SDS011;11870;53.084;18.206;2022-09-14T03:52:41;27.33;;;16.27;;
23394;SDS011;11870;53.084;18.206;2022-09-14T03:55:07;28.63;;;16.83;;
23394;SDS011;11870;53.084;18.206;2022-09-14T03:57:34;29.00;;;17.45;;
23394;SDS011;11870;53.084;18.206;2022-09-14T04:00:00;28.80;;;16.52;;
23394;SDS011;11870;53.084;18.206;2022-09-14T04:02:27;32.25;;;16.50;;
23394;SDS011;11870;53.084;18.206;2022-09-14T04:04:56;27.55;;;15.70;;
23394;SDS011;11870;53.084;18.206;2022-09-14T04:07:22;27.50;;;16.75;;
23394;SDS011;11870;53.084;18.206;2022-09-14T04:09:47;29.48;;;17.23;;
23394;SDS011;11870;53.084;18.206;2022-09-14T04:12:14;30.35;;;17.27;;
23394;SDS011;11870;53.084;18.206;2022-09-14T04:14:40;28.08;;;17.27;;
23394;SDS011;11870;53.084;18.206;2022-09-14T04:17:05;30.48;;;17.13;;
23394;SDS011;11870;53.084;18.206;2022-09-14T04:19:31;30.95;;;16.70;;
23394;SDS011;11870;53.084;18.206;2022-09-14T04:21:58;28.73;;;16.98;;
23394;SDS011;11870;53.084;18.206;2022-09-14T04:24:24;33.38;;;17.88;;
23394;SDS011;11870;53.084;18.206;2022-09-14T04:26:50;30.73;;;17.08;;
23394;SDS011;11870;53.084;18.206;2022-09-14T04:29:16;33.28;;;17.30;;
23394;SDS011;11870;53.084;18.206;2022-09-14T04:31:42;27.35;;;15.77;;
23394;SDS011;11870;53.084;18.206;2022-09-14T04:34:09;28.52;;;15.45;;
23394;SDS011;11870;53.084;18.206;2022-09-14T04:36:37;27.10;;;15.68;;
23394;SDS011;11870;53.084;18.206;2022-09-14T04:39:03;30.75;;;15.00;;
23394;SDS011;11870;53.084;18.206;2022-09-14T04:41:30;29.73;;;16.05;;
23394;SDS011;11870;53.084;18.206;2022-09-14T04:43:56;27.30;;;15.48;;
23394;SDS011;11870;53.084;18.206;2022-09-14T04:46:25;24.90;;;15.30;;
23394;SDS011;11870;53.084;18.206;2022-09-14T04:48:54;30.83;;;16.30;;
23394;SDS011;11870;53.084;18.206;2022-09-14T04:51:20;25.67;;;15.45;;
23394;SDS011;11870;53.084;18.206;2022-09-14T04:53:49;30.90;;;17.17;;
23394;SDS011;11870;53.084;18.206;2022-09-14T04:56:17;30.10;;;16.27;;
23394;SDS011;11870;53.084;18.206;2022-09-14T04:58:50;31.92;;;17.45;;
23394;SDS011;11870;53.084;18.206;2022-09-14T05:01:19;30.08;;;16.45;;
23394;SDS011;11870;53.084;18.206;2022-09-14T05:03:50;31.25;;;17.42;;
23394;SDS011;11870;53.084;18.206;2022-09-14T05:06:17;27.73;;;16.67;;
23394;SDS011;11870;53.084;18.206;2022-09-14T05:08:50;29.15;;;15.68;;
23394;SDS011;11870;53.084;18.206;2022-09-14T05:11:20;30.30;;;15.73;;
23394;SDS011;11870;53.084;18.206;2022-09-14T05:13:49;28.63;;;16.08;;
23394;SDS011;11870;53.084;18.206;2022-09-14T05:16:17;27.77;;;15.82;;
23394;SDS011;11870;53.084;18.206;2022-09-14T05:18:47;25.63;;;15.35;;
23394;SDS011;11870;53.084;18.206;2022-09-14T05:21:15;20.20;;;14.00;;
23394;SDS011;11870;53.084;18.206;2022-09-14T05:23:43;16.13;;;10.55;;
23394;SDS011;11870;53.084;18.206;2022-09-14T05:26:11;16.38;;;10.00;;
23394;SDS011;11870;53.084;18.206;2022-09-14T05:28:39;11.88;;;8.35;;
23394;SDS011;11870;53.084;18.206;2022-09-14T05:31:05;11.30;;;7.97;;
23394;SDS011;11870;53.084;18.206;2022-09-14T05:33:34;10.70;;;8.40;;
23394;SDS011;11870;53.084;18.206;2022-09-14T05:36:01;12.20;;;7.80;;
23394;SDS011;11870;53.084;18.206;2022-09-14T05:38:32;10.48;;;7.38;;
23394;SDS011;11870;53.084;18.206;2022-09-14T05:41:01;12.23;;;7.57;;
23394;SDS011;11870;53.084;18.206;2022-09-14T05:43:27;11.65;;;8.02;;
23394;SDS011;11870;53.084;18.206;2022-09-14T05:45:55;10.07;;;7.20;;
23394;SDS011;11870;53.084;18.206;2022-09-14T05:48:25;10.10;;;6.70;;
23394;SDS011;11870;53.084;18.206;2022-09-14T05:50:56;10.65;;;6.88;;
23394;SDS011;11870;53.084;18.206;2022-09-14T05:53:26;22.63;;;11.63;;
23394;SDS011;11870;53.084;18.206;2022-09-14T05:56:00;12.98;;;7.47;;
23394;SDS011;11870;53.084;18.206;2022-09-14T05:58:31;10.77;;;6.07;;
23394;SDS011;11870;53.084;18.206;2022-09-14T06:00:57;8.82;;;6.05;;
23394;SDS011;11870;53.084;18.206;2022-09-14T06:03:23;7.97;;;5.05;;
23394;SDS011;11870;53.084;18.206;2022-09-14T06:05:49;6.28;;;4.63;;
23394;SDS011;11870;53.084;18.206;2022-09-14T06:08:15;7.13;;;4.60;;
23394;SDS011;11870;53.084;18.206;2022-09-14T06:10:41;7.30;;;4.57;;
23394;SDS011;11870;53.084;18.206;2022-09-14T06:13:07;5.78;;;4.13;;
23394;SDS011;11870;53.084;18.206;2022-09-14T06:15:33;6.28;;;4.10;;
23394;SDS011;11870;53.084;18.206;2022-09-14T06:17:59;5.45;;;4.13;;
23394;SDS011;11870;53.084;18.206;2022-09-14T06:20:25;4.80;;;3.47;;
23394;SDS011;11870;53.084;18.206;2022-09-14T06:22:51;4.57;;;3.45;;
23394;SDS011;11870;53.084;18.206;2022-09-14T06:25:17;6.88;;;3.50;;
23394;SDS011;11870;53.084;18.206;2022-09-14T06:27:43;4.60;;;3.30;;
23394;SDS011;11870;53.084;18.206;2022-09-14T06:30:09;6.40;;;3.40;;
23394;SDS011;11870;53.084;18.206;2022-09-14T06:32:36;6.35;;;3.47;;
23394;SDS011;11870;53.084;18.206;2022-09-14T06:35:02;5.57;;;2.72;;
23394;SDS011;11870;53.084;18.206;2022-09-14T06:37:29;4.47;;;2.70;;
23394;SDS011;11870;53.084;18.206;2022-09-14T06:39:55;5.40;;;2.63;;
23394;SDS011;11870;53.084;18.206;2022-09-14T06:42:21;3.95;;;2.67;;
23394;SDS011;11870;53.084;18.206;2022-09-14T06:44:46;4.65;;;2.50;;
23394;SDS011;11870;53.084;18.206;2022-09-14T06:47:12;3.85;;;2.72;;
23394;SDS011;11870;53.084;18.206;2022-09-14T06:49:38;4.35;;;2.60;;
23394;SDS011;11870;53.084;18.206;2022-09-14T06:52:04;4.10;;;2.58;;
23394;SDS011;11870;53.084;18.206;2022-09-14T06:54:30;7.05;;;2.70;;
23394;SDS011;11870;53.084;18.206;2022-09-14T06:56:56;3.75;;;2.30;;
23394;SDS011;11870;53.084;18.206;2022-09-14T06:59:22;4.80;;;2.42;;
23394;SDS011;11870;53.084;18.206;2022-09-14T07:01:48;3.53;;;2.13;;
23394;SDS011;11870;53.084;18.206;2022-09-14T07:04:15;4.82;;;2.30;;
23394;SDS011;11870;53.084;18.206;2022-09-14T07:06:49;6.07;;;2.42;;
23394;SDS011;11870;53.084;18.206;2022-09-14T07:09:16;5.30;;;2.08;;
23394;SDS011;11870;53.084;18.206;2022-09-14T07:11:45;3.85;;;2.08;;
23394;SDS011;11870;53.084;18.206;2022-09-14T07:14:11;4.53;;;2.08;;
23394;SDS011;11870;53.084;18.206;2022-09-14T07:16:38;3.60;;;2.05;;
23394;SDS011;11870;53.084;18.206;2022-09-14T07:19:11;3.13;;;2.05;;
23394;SDS011;11870;53.084;18.206;2022-09-14T07:21:40;3.80;;;1.90;;
23394;SDS011;11870;53.084;18.206;2022-09-14T07:24:07;4.78;;;1.90;;
23394;SDS011;11870;53.084;18.206;2022-09-14T07:26:34;5.80;;;2.03;;
23394;SDS011;11870;53.084;18.206;2022-09-14T07:29:12;3.88;;;1.67;;
23394;SDS011;11870;53.084;18.206;2022-09-14T07:31:43;4.10;;;1.90;;
23394;SDS011;11870;53.084;18.206;2022-09-14T07:34:13;4.47;;;2.15;;
23394;SDS011;11870;53.084;18.206;2022-09-14T07:36:41;3.45;;;1.55;;
23394;SDS011;11870;53.084;18.206;2022-09-14T07:39:11;4.75;;;1.80;;
23394;SDS011;11870;53.084;18.206;2022-09-14T07:41:41;3.95;;;1.70;;
23394;SDS011;11870;53.084;18.206;2022-09-14T07:44:07;4.85;;;1.40;;
23394;SDS011;11870;53.084;18.206;2022-09-14T07:46:39;3.75;;;1.55;;
23394;SDS011;11870;53.084;18.206;2022-09-14T07:49:09;3.47;;;1.67;;
23394;SDS011;11870;53.084;18.206;2022-09-14T07:51:38;3.38;;;1.60;;
23394;SDS011;11870;53.084;18.206;2022-09-14T07:54:09;5.15;;;1.90;;
23394;SDS011;11870;53.084;18.206;2022-09-14T07:56:37;4.65;;;1.70;;
23394;SDS011;11870;53.084;18.206;2022-09-14T07:59:05;2.05;;;1.67;;
23394;SDS011;11870;53.084;18.206;2022-09-14T08:01:31;4.97;;;1.48;;
23394;SDS011;11870;53.084;18.206;2022-09-14T08:04:00;3.67;;;1.60;;
23394;SDS011;11870;53.084;18.206;2022-09-14T08:06:27;4.00;;;1.58;;
23394;SDS011;11870;53.084;18.206;2022-09-14T08:08:55;6.18;;;1.40;;
23394;SDS011;11870;53.084;18.206;2022-09-14T08:11:24;2.60;;;1.30;;
23394;SDS011;11870;53.084;18.206;2022-09-14T08:13:54;3.38;;;1.48;;
23394;SDS011;11870;53.084;18.206;2022-09-14T08:16:23;4.32;;;1.75;;
23394;SDS011;11870;53.084;18.206;2022-09-14T08:18:57;3.03;;;1.50;;
23394;SDS011;11870;53.084;18.206;2022-09-14T08:21:27;3.83;;;1.40;;
23394;SDS011;11870;53.084;18.206;2022-09-14T08:23:57;2.78;;;1.27;;
23394;SDS011;11870;53.084;18.206;2022-09-14T08:26:29;5.90;;;1.70;;
23394;SDS011;11870;53.084;18.206;2022-09-14T08:28:58;3.58;;;1.50;;
23394;SDS011;11870;53.084;18.206;2022-09-14T08:31:26;2.80;;;1.30;;
23394;SDS011;11870;53.084;18.206;2022-09-14T08:33:57;5.53;;;1.75;;
23394;SDS011;11870;53.084;18.206;2022-09-14T08:36:27;4.70;;;1.60;;
23394;SDS011;11870;53.084;18.206;2022-09-14T08:38:58;5.20;;;1.48;;
23394;SDS011;11870;53.084;18.206;2022-09-14T08:46:40;3.28;;;1.25;;
23394;SDS011;11870;53.084;18.206;2022-09-14T08:49:12;3.58;;;1.35;;
23394;SDS011;11870;53.084;18.206;2022-09-14T08:51:47;4.00;;;1.45;;
23394;SDS011;11870;53.084;18.206;2022-09-14T08:54:15;2.58;;;1.35;;
23394;SDS011;11870;53.084;18.206;2022-09-14T08:56:42;7.03;;;1.45;;
23394;SDS011;11870;53.084;18.206;2022-09-14T08:59:33;3.10;;;1.27;;
23394;SDS011;11870;53.084;18.206;2022-09-14T09:02:28;3.13;;;1.33;;
23394;SDS011;11870;53.084;18.206;2022-09-14T09:05:11;4.15;;;1.30;;
23394;SDS011;11870;53.084;18.206;2022-09-14T09:08:07;5.30;;;1.40;;
23394;SDS011;11870;53.084;18.206;2022-09-14T09:10:48;5.05;;;1.27;;
23394;SDS011;11870;53.084;18.206;2022-09-14T09:13:22;1.88;;;1.10;;
23394;SDS011;11870;53.084;18.206;2022-09-14T09:15:56;2.40;;;0.98;;
23394;SDS011;11870;53.084;18.206;2022-09-14T09:18:36;3.53;;;1.40;;
23394;SDS011;11870;53.084;18.206;2022-09-14T09:21:04;4.10;;;1.30;;
23394;SDS011;11870;53.084;18.206;2022-09-14T09:23:36;3.13;;;1.10;;
23394;SDS011;11870;53.084;18.206;2022-09-14T09:26:02;3.25;;;1.30;;
23394;SDS011;11870;53.084;18.206;2022-09-14T09:28:59;2.00;;;1.30;;
23394;SDS011;11870;53.084;18.206;2022-09-14T09:31:32;1.75;;;1.00;;
23394;SDS011;11870;53.084;18.206;2022-09-14T09:34:11;3.10;;;1.13;;
23394;SDS011;11870;53.084;18.206;2022-09-14T09:36:50;2.47;;;1.20;;
23394;SDS011;11870;53.084;18.206;2022-09-14T09:39:18;2.05;;;1.00;;
23394;SDS011;11870;53.084;18.206;2022-09-14T09:42:02;2.83;;;1.25;;
23394;SDS011;11870;53.084;18.206;2022-09-14T09:44:54;2.22;;;1.20;;
23394;SDS011;11870;53.084;18.206;2022-09-14T09:47:29;1.50;;;1.00;;
23394;SDS011;11870;53.084;18.206;2022-09-14T09:50:04;3.17;;;1.08;;
23394;SDS011;11870;53.084;18.206;2022-09-14T09:52:54;2.40;;;1.00;;
23394;SDS011;11870;53.084;18.206;2022-09-14T09:55:36;3.08;;;1.02;;
23394;SDS011;11870;53.084;18.206;2022-09-14T10:01:07;2.35;;;1.00;;
23394;SDS011;11870;53.084;18.206;2022-09-14T10:03:43;2.25;;;0.85;;
23394;SDS011;11870;53.084;18.206;2022-09-14T10:06:42;1.90;;;0.90;;
23394;SDS011;11870;53.084;18.206;2022-09-14T10:09:20;1.20;;;0.85;;
23394;SDS011;11870;53.084;18.206;2022-09-14T10:11:57;2.13;;;1.00;;
23394;SDS011;11870;53.084;18.206;2022-09-14T10:14:30;2.72;;;1.02;;
23394;SDS011;11870;53.084;18.206;2022-09-14T10:19:46;1.83;;;0.85;;
23394;SDS011;11870;53.084;18.206;2022-09-14T10:24:55;3.25;;;0.90;;
23394;SDS011;11870;53.084;18.206;2022-09-14T10:27:30;1.95;;;1.13;;
23394;SDS011;11870;53.084;18.206;2022-09-14T10:29:59;2.40;;;0.85;;
23394;SDS011;11870;53.084;18.206;2022-09-14T10:32:28;1.38;;;0.80;;
23394;SDS011;11870;53.084;18.206;2022-09-14T10:38:42;3.72;;;0.70;;
23394;SDS011;11870;53.084;18.206;2022-09-14T10:44:03;1.38;;;0.90;;
23394;SDS011;11870;53.084;18.206;2022-09-14T10:54:53;3.00;;;0.90;;
23394;SDS011;11870;53.084;18.206;2022-09-14T11:00:20;2.08;;;0.90;;
23394;SDS011;11870;53.084;18.206;2022-09-14T11:02:56;2.42;;;1.05;;
23394;SDS011;11870;53.084;18.206;2022-09-14T11:05:42;4.45;;;1.15;;
23394;SDS011;11870;53.084;18.206;2022-09-14T11:11:12;3.83;;;1.00;;
23394;SDS011;11870;53.084;18.206;2022-09-14T11:16:26;2.88;;;1.00;;
23394;SDS011;11870;53.084;18.206;2022-09-14T11:19:26;3.88;;;1.30;;
23394;SDS011;11870;53.084;18.206;2022-09-14T11:22:08;2.25;;;0.88;;
23394;SDS011;11870;53.084;18.206;2022-09-14T11:24:50;2.42;;;0.90;;
23394;SDS011;11870;53.084;18.206;2022-09-14T11:27:31;2.72;;;1.45;;
23394;SDS011;11870;53.084;18.206;2022-09-14T11:30:07;2.28;;;0.90;;
23394;SDS011;11870;53.084;18.206;2022-09-14T11:33:09;1.33;;;0.90;;
23394;SDS011;11870;53.084;18.206;2022-09-14T11:36:03;2.83;;;1.25;;
23394;SDS011;11870;53.084;18.206;2022-09-14T11:38:43;4.47;;;1.10;;
23394;SDS011;11870;53.084;18.206;2022-09-14T11:41:19;3.95;;;1.20;;
23394;SDS011;11870;53.084;18.206;2022-09-14T11:46:37;6.38;;;2.75;;
23394;SDS011;11870;53.084;18.206;2022-09-14T11:51:48;3.88;;;1.20;;
23394;SDS011;11870;53.084;18.206;2022-09-14T11:54:26;2.45;;;1.27;;
23394;SDS011;11870;53.084;18.206;2022-09-14T11:56:54;1.52;;;1.02;;
23394;SDS011;11870;53.084;18.206;2022-09-14T11:59:35;4.88;;;1.52;;
23394;SDS011;11870;53.084;18.206;2022-09-14T12:18:13;3.58;;;1.27;;
23394;SDS011;11870;53.084;18.206;2022-09-14T12:20:47;2.60;;;1.27;;
23394;SDS011;11870;53.084;18.206;2022-09-14T13:04:53;3.88;;;1.27;;
23394;SDS011;11870;53.084;18.206;2022-09-14T13:07:22;5.15;;;1.50;;
23394;SDS011;11870;53.084;18.206;2022-09-14T13:09:54;2.85;;;1.40;;
23394;SDS011;11870;53.084;18.206;2022-09-14T13:12:23;5.10;;;1.42;;
23394;SDS011;11870;53.084;18.206;2022-09-14T13:14:51;4.10;;;1.40;;
23394;SDS011;11870;53.084;18.206;2022-09-14T13:17:20;3.65;;;1.38;;
23394;SDS011;11870;53.084;18.206;2022-09-14T13:19:55;2.65;;;1.05;;
23394;SDS011;11870;53.084;18.206;2022-09-14T13:22:24;4.15;;;1.30;;
23394;SDS011;11870;53.084;18.206;2022-09-14T13:24:56;2.60;;;1.25;;
23394;SDS011;11870;53.084;18.206;2022-09-14T13:27:27;5.93;;;1.60;;
23394;SDS011;11870;53.084;18.206;2022-09-14T13:32:49;6.63;;;1.52;;
23394;SDS011;11870;53.084;18.206;2022-09-14T13:37:49;4.78;;;1.20;;
23394;SDS011;11870;53.084;18.206;2022-09-14T13:40:15;4.15;;;1.38;;
23394;SDS011;11870;53.084;18.206;2022-09-14T13:42:46;5.68;;;1.50;;
23394;SDS011;11870;53.084;18.206;2022-09-14T13:45:12;4.30;;;1.42;;
23394;SDS011;11870;53.084;18.206;2022-09-14T13:47:39;4.70;;;1.80;;
23394;SDS011;11870;53.084;18.206;2022-09-14T13:50:05;4.45;;;1.75;;
23394;SDS011;11870;53.084;18.206;2022-09-14T13:52:36;2.28;;;1.50;;
23394;SDS011;11870;53.084;18.206;2022-09-14T13:55:13;4.45;;;1.60;;
23394;SDS011;11870;53.084;18.206;2022-09-14T13:58:03;4.90;;;1.63;;
23394;SDS011;11870;53.084;18.206;2022-09-14T14:00:29;5.65;;;1.35;;
23394;SDS011;11870;53.084;18.206;2022-09-14T14:03:01;4.85;;;1.55;;
23394;SDS011;11870;53.084;18.206;2022-09-14T14:05:29;4.55;;;1.50;;
23394;SDS011;11870;53.084;18.206;2022-09-14T14:07:58;5.55;;;1.30;;
23394;SDS011;11870;53.084;18.206;2022-09-14T14:12:51;1.75;;;1.20;;
23394;SDS011;11870;53.084;18.206;2022-09-14T14:17:43;4.40;;;1.77;;
23394;SDS011;11870;53.084;18.206;2022-09-14T14:25:36;3.63;;;1.60;;
23394;SDS011;11870;53.084;18.206;2022-09-14T14:28:05;5.40;;;1.50;;
23394;SDS011;11870;53.084;18.206;2022-09-14T14:30:43;3.20;;;1.25;;
23394;SDS011;11870;53.084;18.206;2022-09-14T14:33:10;4.55;;;1.48;;
23394;SDS011;11870;53.084;18.206;2022-09-14T14:35:38;2.95;;;1.40;;
23394;SDS011;11870;53.084;18.206;2022-09-14T14:38:04;4.60;;;1.40;;
23394;SDS011;11870;53.084;18.206;2022-09-14T14:40:30;2.67;;;1.40;;
23394;SDS011;11870;53.084;18.206;2022-09-14T14:42:57;5.05;;;1.52;;
23394;SDS011;11870;53.084;18.206;2022-09-14T14:45:24;3.22;;;1.17;;
23394;SDS011;11870;53.084;18.206;2022-09-14T14:47:52;7.00;;;1.70;;
23394;SDS011;11870;53.084;18.206;2022-09-14T14:50:26;3.78;;;1.38;;
23394;SDS011;11870;53.084;18.206;2022-09-14T14:52:58;4.30;;;1.35;;
23394;SDS011;11870;53.084;18.206;2022-09-14T14:55:27;3.05;;;1.42;;
23394;SDS011;11870;53.084;18.206;2022-09-14T14:57:57;4.63;;;1.27;;
23394;SDS011;11870;53.084;18.206;2022-09-14T15:00:25;3.97;;;1.50;;
23394;SDS011;11870;53.084;18.206;2022-09-14T15:02:52;3.95;;;1.52;;
23394;SDS011;11870;53.084;18.206;2022-09-14T15:05:19;5.43;;;1.67;;
23394;SDS011;11870;53.084;18.206;2022-09-14T15:07:45;3.78;;;1.70;;
23394;SDS011;11870;53.084;18.206;2022-09-14T15:10:14;3.15;;;1.50;;
23394;SDS011;11870;53.084;18.206;2022-09-14T15:12:41;2.75;;;1.58;;
23394;SDS011;11870;53.084;18.206;2022-09-14T15:15:11;3.25;;;1.63;;
23394;SDS011;11870;53.084;18.206;2022-09-14T15:17:42;4.43;;;1.70;;
23394;SDS011;11870;53.084;18.206;2022-09-14T15:20:10;3.10;;;1.95;;
23394;SDS011;11870;53.084;18.206;2022-09-14T15:22:37;2.42;;;1.40;;
23394;SDS011;11870;53.084;18.206;2022-09-14T15:25:04;3.92;;;1.60;;
23394;SDS011;11870;53.084;18.206;2022-09-14T15:27:31;5.45;;;1.65;;
23394;SDS011;11870;53.084;18.206;2022-09-14T15:29:57;4.70;;;1.50;;
23394;SDS011;11870;53.084;18.206;2022-09-14T15:32:23;2.75;;;1.38;;
23394;SDS011;11870;53.084;18.206;2022-09-14T15:34:49;2.85;;;1.52;;
23394;SDS011;11870;53.084;18.206;2022-09-14T15:37:17;6.80;;;1.70;;
23394;SDS011;11870;53.084;18.206;2022-09-14T15:39:43;3.75;;;1.45;;
23394;SDS011;11870;53.084;18.206;2022-09-14T15:42:10;1.95;;;1.30;;
23394;SDS011;11870;53.084;18.206;2022-09-14T15:44:35;5.05;;;1.80;;
23394;SDS011;11870;53.084;18.206;2022-09-14T15:47:01;3.80;;;1.45;;
23394;SDS011;11870;53.084;18.206;2022-09-14T15:49:27;5.18;;;1.80;;
23394;SDS011;11870;53.084;18.206;2022-09-14T15:51:54;3.28;;;1.60;;
23394;SDS011;11870;53.084;18.206;2022-09-14T15:54:23;3.25;;;1.83;;
23394;SDS011;11870;53.084;18.206;2022-09-14T15:56:52;4.00;;;2.00;;
23394;SDS011;11870;53.084;18.206;2022-09-14T15:59:19;2.67;;;1.70;;
23394;SDS011;11870;53.084;18.206;2022-09-14T16:01:46;4.82;;;1.80;;
23394;SDS011;11870;53.084;18.206;2022-09-14T16:04:13;5.32;;;1.90;;
23394;SDS011;11870;53.084;18.206;2022-09-14T16:06:39;2.83;;;1.60;;
23394;SDS011;11870;53.084;18.206;2022-09-14T16:09:06;4.70;;;2.00;;
23394;SDS011;11870;53.084;18.206;2022-09-14T16:11:34;3.22;;;1.52;;
23394;SDS011;11870;53.084;18.206;2022-09-14T16:14:01;3.55;;;1.83;;
23394;SDS011;11870;53.084;18.206;2022-09-14T16:16:29;3.22;;;1.75;;
23394;SDS011;11870;53.084;18.206;2022-09-14T16:18:56;5.00;;;2.20;;
23394;SDS011;11870;53.084;18.206;2022-09-14T16:21:23;4.43;;;1.90;;
23394;SDS011;11870;53.084;18.206;2022-09-14T16:23:52;3.70;;;1.98;;
23394;SDS011;11870;53.084;18.206;2022-09-14T16:26:29;6.40;;;2.10;;
23394;SDS011;11870;53.084;18.206;2022-09-14T16:28:58;3.78;;;2.10;;
23394;SDS011;11870;53.084;18.206;2022-09-14T16:31:25;3.63;;;1.90;;
23394;SDS011;11870;53.084;18.206;2022-09-14T16:33:55;5.20;;;2.00;;
23394;SDS011;11870;53.084;18.206;2022-09-14T16:36:24;8.15;;;2.25;;
23394;SDS011;11870;53.084;18.206;2022-09-14T16:38:55;3.78;;;2.10;;
23394;SDS011;11870;53.084;18.206;2022-09-14T16:41:23;4.97;;;2.17;;
23394;SDS011;11870;53.084;18.206;2022-09-14T16:43:53;2.40;;;1.77;;
23394;SDS011;11870;53.084;18.206;2022-09-14T16:46:20;3.35;;;1.75;;
23394;SDS011;11870;53.084;18.206;2022-09-14T16:48:47;3.65;;;1.90;;
23394;SDS011;11870;53.084;18.206;2022-09-14T16:51:17;4.65;;;2.53;;
23394;SDS011;11870;53.084;18.206;2022-09-14T16:53:45;6.03;;;3.15;;
23394;SDS011;11870;53.084;18.206;2022-09-14T16:56:17;6.78;;;3.13;;
23394;SDS011;11870;53.084;18.206;2022-09-14T16:58:45;5.82;;;3.22;;
23394;SDS011;11870;53.084;18.206;2022-09-14T17:03:39;9.52;;;3.35;;
23394;SDS011;11870;53.084;18.206;2022-09-14T17:06:07;6.97;;;3.67;;
23394;SDS011;11870;53.084;18.206;2022-09-14T17:08:35;7.72;;;4.32;;
23394;SDS011;11870;53.084;18.206;2022-09-14T17:11:02;6.40;;;4.38;;
23394;SDS011;11870;53.084;18.206;2022-09-14T17:13:29;8.90;;;4.00;;